Time;durP1;ratioP1;P1;durP2;ratioP2;P2;SDS_P1;SDS_P2;PMS_P1;PMS_P2;Temp;Humidity;BMP_temperature;BMP_pressure;BME280_temperature;BME280_humidity;BME280_pressure;Samples;Min_cycle;Max_cycle;Signal;HPM_P1;HPM_P2
2022/01/13 00:00:48;;;;;;;;;;;24.00;44.80;;;;;;1527482;76;1127;-69
2022/01/13 00:02:50;;;;;;;;;;;24.00;44.70;;;;;;1527414;78;740;-69
2022/01/13 00:04:52;;;;;;;;;;;24.00;44.70;;;;;;1527406;78;805;-69
2022/01/13 00:06:53;;;;;;;;;;;24.00;44.70;;;;;;1531557;77;812;-69
2022/01/13 00:08:55;;;;;;;;;;;24.00;44.70;;;;;;1532859;77;722;-69
2022/01/13 00:10:57;;;;;;;;;;;24.10;44.80;;;;;;1532803;76;1193;-69
2022/01/13 00:13:06;;;;;;;;;;;24.00;44.70;;;;;;1532815;77;717;-69
2022/01/13 00:15:24;;;;;;;;;;;24.00;44.70;;;;;;1531806;77;1583;-68
2022/01/13 00:19:47;;;;;;;;;;;24.00;44.70;;;;;;1536872;76;1903;-71
2022/01/13 00:21:41;;;;;;;;;;;24.00;44.70;;;;;;1527159;77;1583;-69
2022/01/13 00:25:46;;;;;;;;;;;24.00;44.70;;;;;;1532754;77;859;-68
2022/01/13 00:27:54;;;;;;;;;;;24.00;44.80;;;;;;1532530;77;684;-70
2022/01/13 00:29:54;;;;;;;;;;;24.00;44.90;;;;;;1531230;76;1589;-68
2022/01/13 00:31:55;;;;;;;;;;;24.00;44.90;;;;;;1532335;77;1421;-69
2022/01/13 00:33:57;;;;;;;;;;;24.00;44.90;;;;;;1532828;77;721;-68
2022/01/13 00:36:00;;;;;;;;;;;24.00;44.90;;;;;;1532683;77;604;-65
2022/01/13 00:38:02;;;;;;;;;;;24.00;44.90;;;;;;1532524;77;744;-68
2022/01/13 00:40:04;;;;;;;;;;;24.00;44.90;;;;;;1532510;76;1935;-68
2022/01/13 00:42:06;;;;;;;;;;;24.00;45.00;;;;;;1532794;77;721;-67
2022/01/13 00:44:08;;;;;;;;;;;24.00;45.00;;;;;;1532765;77;710;-67
2022/01/13 00:46:12;;;;;;;;;;;24.00;45.00;;;;;;1532319;77;1079;-67
2022/01/13 00:48:14;;;;;;;;;;;24.00;45.00;;;;;;1532491;77;714;-67
2022/01/13 00:50:18;;;;;;;;;;;24.00;45.00;;;;;;1519734;77;1150;-67
2022/01/13 00:52:19;;;;;;;;;;;24.00;45.00;;;;;;1518113;78;1105;-68
2022/01/13 00:54:21;;;;;;;;;;;24.00;45.10;;;;;;1518213;78;776;-67
2022/01/13 00:56:23;;;;;;;;;;;24.00;45.00;;;;;;1518051;78;730;-67
2022/01/13 00:58:26;;;;;;;;;;;24.00;45.10;;;;;;1521341;77;713;-68
2022/01/13 01:00:28;;;;;;;;;;;23.90;45.10;;;;;;1527066;76;1920;-68
2022/01/13 01:02:30;;;;;;;;;;;23.90;45.10;;;;;;1527024;78;665;-69
2022/01/13 01:04:32;;;;;;;;;;;23.90;45.10;;;;;;1527117;78;762;-68
2022/01/13 01:06:34;;;;;;;;;;;24.00;45.20;;;;;;1527938;77;699;-67
2022/01/13 01:08:36;;;;;;;;;;;24.00;45.10;;;;;;1532738;77;767;-67
2022/01/13 01:10:38;;;;;;;;;;;24.00;45.10;;;;;;1532917;76;1130;-67
2022/01/13 01:12:40;;;;;;;;;;;23.90;45.10;;;;;;1532831;77;722;-67
2022/01/13 01:14:47;;;;;;;;;;;24.00;45.20;;;;;;1532588;77;710;-67
2022/01/13 01:16:46;;;;;;;;;;;24.00;45.10;;;;;;1523606;77;1411;-68
2022/01/13 01:23:17;;;;;;;;;;;24.00;45.10;;;;;;1532753;77;865;-69
2022/01/13 01:25:37;;;;;;;;;;;23.90;45.10;;;;;;1532037;77;1663;-68
2022/01/13 01:27:28;;;;;;;;;;;23.90;45.20;;;;;;1527674;77;1149;-68
2022/01/13 01:29:38;;;;;;;;;;;23.90;45.20;;;;;;1531766;76;1166;-69
2022/01/13 01:31:35;;;;;;;;;;;23.90;45.20;;;;;;1530772;77;1462;-67
2022/01/13 01:33:40;;;;;;;;;;;23.90;45.20;;;;;;1532650;77;1621;-68
2022/01/13 01:35:40;;;;;;;;;;;23.90;45.20;;;;;;1531863;77;999;-69
2022/01/13 01:37:42;;;;;;;;;;;23.90;45.20;;;;;;1532894;77;772;-69
2022/01/13 01:39:45;;;;;;;;;;;23.90;45.20;;;;;;1532650;76;1901;-69
2022/01/13 01:41:48;;;;;;;;;;;23.90;45.20;;;;;;1526085;76;739;-68
2022/01/13 01:43:51;;;;;;;;;;;23.90;45.20;;;;;;1532865;77;611;-67
2022/01/13 01:45:54;;;;;;;;;;;23.90;45.30;;;;;;1532522;77;812;-69
2022/01/13 01:47:56;;;;;;;;;;;23.90;45.30;;;;;;1532863;77;614;-68
2022/01/13 01:49:59;;;;;;;;;;;23.90;45.30;;;;;;1538563;76;1202;-69
2022/01/13 01:52:01;;;;;;;;;;;23.80;45.20;;;;;;1530756;76;702;-65
2022/01/13 01:54:03;;;;;;;;;;;23.90;45.30;;;;;;1524445;76;674;-68
2022/01/13 01:56:04;;;;;;;;;;;23.90;45.30;;;;;;1515512;78;1006;-68
2022/01/13 01:58:08;;;;;;;;;;;23.90;45.30;;;;;;1552852;76;779;-68
2022/01/13 02:00:12;;;;;;;;;;;23.90;45.30;;;;;;1559540;75;1923;-68
2022/01/13 02:02:15;;;;;;;;;;;23.90;45.40;;;;;;1536004;76;752;-69
2022/01/13 02:04:17;;;;;;;;;;;23.90;45.40;;;;;;1532843;77;737;-68
2022/01/13 02:06:19;;;;;;;;;;;23.90;45.50;;;;;;1532739;77;702;-68
2022/01/13 02:08:21;;;;;;;;;;;23.90;45.50;;;;;;1530985;76;819;-68
2022/01/13 02:10:23;;;;;;;;;;;23.90;45.50;;;;;;1527083;77;1071;-68
2022/01/13 02:12:35;;;;;;;;;;;23.80;45.50;;;;;;1523085;77;701;-68
2022/01/13 02:14:47;;;;;;;;;;;23.90;45.50;;;;;;1522768;78;1456;-68
2022/01/13 02:16:44;;;;;;;;;;;23.80;45.50;;;;;;1523791;78;1587;-68
2022/01/13 02:18:42;;;;;;;;;;;23.80;45.60;;;;;;1536103;76;1557;-68
2022/01/13 02:20:44;;;;;;;;;;;23.80;45.60;;;;;;1559120;75;1942;-68
2022/01/13 02:22:46;;;;;;;;;;;23.80;45.60;;;;;;1558961;75;797;-68
2022/01/13 02:24:48;;;;;;;;;;;23.80;45.50;;;;;;1559208;76;657;-68
2022/01/13 02:26:50;;;;;;;;;;;23.80;45.60;;;;;;1559216;76;709;-67
2022/01/13 02:28:52;;;;;;;;;;;23.80;45.60;;;;;;1533161;76;681;-65
2022/01/13 02:30:54;;;;;;;;;;;23.80;45.60;;;;;;1532913;76;1133;-68
2022/01/13 02:32:56;;;;;;;;;;;23.90;45.60;;;;;;1532951;77;662;-68
2022/01/13 02:34:57;;;;;;;;;;;23.90;45.60;;;;;;1532798;77;781;-69
2022/01/13 02:36:59;;;;;;;;;;;23.80;45.50;;;;;;1532649;77;711;-67
2022/01/13 02:39:01;;;;;;;;;;;23.90;45.60;;;;;;1532830;77;721;-67
2022/01/13 02:41:03;;;;;;;;;;;23.90;45.60;;;;;;1532834;76;1924;-67
2022/01/13 02:43:05;;;;;;;;;;;23.90;45.60;;;;;;1532900;77;711;-67
2022/01/13 02:45:15;;;;;;;;;;;23.90;45.60;;;;;;1532752;77;771;-67
2022/01/13 02:47:21;;;;;;;;;;;23.90;45.50;;;;;;1530686;77;1510;-68
2022/01/13 02:49:15;;;;;;;;;;;23.90;45.50;;;;;;1523537;77;1547;-69
2022/01/13 02:51:17;;;;;;;;;;;23.90;45.50;;;;;;1515903;78;1158;-67
2022/01/13 02:53:19;;;;;;;;;;;23.90;45.50;;;;;;1516122;78;721;-69
2022/01/13 02:55:21;;;;;;;;;;;23.90;45.50;;;;;;1530432;76;822;-68
2022/01/13 02:57:22;;;;;;;;;;;23.90;45.50;;;;;;1537978;76;1169;-69
2022/01/13 02:59:24;;;;;;;;;;;23.90;45.50;;;;;;1541446;76;1944;-68
2022/01/13 03:01:26;;;;;;;;;;;23.90;45.50;;;;;;1519138;78;787;-69
2022/01/13 03:03:30;;;;;;;;;;;23.90;45.50;;;;;;1524363;76;732;-69
2022/01/13 03:05:37;;;;;;;;;;;23.90;45.50;;;;;;1547097;76;818;-69
2022/01/13 03:07:35;;;;;;;;;;;23.90;45.50;;;;;;1531801;77;1582;-68
2022/01/13 03:09:37;;;;;;;;;;;23.90;45.50;;;;;;1532920;76;1146;-68
2022/01/13 03:11:39;;;;;;;;;;;23.90;45.50;;;;;;1532799;77;724;-68
2022/01/13 03:13:41;;;;;;;;;;;23.90;45.50;;;;;;1536398;76;765;-69
2022/01/13 03:15:43;;;;;;;;;;;23.90;45.50;;;;;;1532865;77;744;-69
2022/01/13 03:17:45;;;;;;;;;;;23.90;45.50;;;;;;1544364;77;749;-68
2022/01/13 03:19:47;;;;;;;;;;;23.90;45.50;;;;;;1554736;75;1935;-69
2022/01/13 03:21:49;;;;;;;;;;;23.90;45.50;;;;;;1559129;76;720;-69
2022/01/13 03:23:51;;;;;;;;;;;23.90;45.60;;;;;;1559132;76;790;-69
2022/01/13 03:25:53;;;;;;;;;;;23.90;45.50;;;;;;1559086;76;679;-69
2022/01/13 03:28:05;;;;;;;;;;;23.90;45.50;;;;;;1532954;76;827;-68
2022/01/13 03:30:04;;;;;;;;;;;23.90;45.50;;;;;;1521887;77;1169;-69
2022/01/13 03:32:06;;;;;;;;;;;23.90;45.50;;;;;;1515095;78;760;-69
2022/01/13 03:34:08;;;;;;;;;;;23.90;45.50;;;;;;1514946;77;732;-69
2022/01/13 03:36:10;;;;;;;;;;;23.90;45.50;;;;;;1550526;76;754;-69
2022/01/13 03:38:12;;;;;;;;;;;23.90;45.40;;;;;;1559176;76;727;-69
2022/01/13 03:40:14;;;;;;;;;;;24.00;45.40;;;;;;1559006;75;1951;-68
2022/01/13 03:42:16;;;;;;;;;;;24.00;45.40;;;;;;1559138;76;740;-68
2022/01/13 03:44:27;;;;;;;;;;;24.00;45.40;;;;;;1557427;76;724;-67
2022/01/13 03:46:21;;;;;;;;;;;24.00;45.40;;;;;;1556420;75;1647;-68
2022/01/13 03:48:23;;;;;;;;;;;23.90;45.40;;;;;;1555654;76;719;-67
2022/01/13 03:50:25;;;;;;;;;;;23.90;45.50;;;;;;1531148;76;1157;-67
2022/01/13 03:52:28;;;;;;;;;;;23.80;45.50;;;;;;1533655;77;685;-67
2022/01/13 03:54:35;;;;;;;;;;;23.80;45.60;;;;;;1525634;77;1731;-68
2022/01/13 03:56:46;;;;;;;;;;;23.80;45.80;;;;;;1536495;77;676;-68
2022/01/13 03:58:49;;;;;;;;;;;23.70;45.90;;;;;;1532891;77;942;-68
2022/01/13 04:01:09;;;;;;;;;;;23.60;46.00;;;;;;1528169;76;1937;-67
2022/01/13 04:03:11;;;;;;;;;;;23.50;46.20;;;;;;1516305;76;715;-70
2022/01/13 04:05:13;;;;;;;;;;;23.50;46.30;;;;;;1559617;76;785;-69
2022/01/13 04:07:18;;;;;;;;;;;23.40;46.40;;;;;;1544915;76;721;-68
2022/01/13 04:09:25;;;;;;;;;;;23.40;46.50;;;;;;1526325;76;839;-69
2022/01/13 04:11:29;;;;;;;;;;;23.30;46.60;;;;;;1532788;77;783;-69
2022/01/13 04:15:50;;;;;;;;;;;23.30;46.80;;;;;;1532454;77;870;-65
2022/01/13 04:17:52;;;;;;;;;;;23.20;46.70;;;;;;1544959;77;628;-66
2022/01/13 04:19:54;;;;;;;;;;;23.30;46.90;;;;;;1534219;76;1945;-65
2022/01/13 04:21:56;;;;;;;;;;;23.20;46.90;;;;;;1527729;76;1078;-66
2022/01/13 04:23:58;;;;;;;;;;;23.20;47.00;;;;;;1531967;76;809;-70
2022/01/13 04:26:04;;;;;;;;;;;23.20;47.00;;;;;;1530055;77;717;-70
2022/01/13 04:28:04;;;;;;;;;;;23.20;47.00;;;;;;1531626;77;1072;-69
2022/01/13 04:30:33;;;;;;;;;;;23.30;47.10;;;;;;1531330;76;1166;-71
2022/01/13 04:32:16;;;;;;;;;;;23.20;46.90;;;;;;1530854;77;932;-70
2022/01/13 04:34:18;;;;;;;;;;;23.30;47.00;;;;;;1536348;77;668;-69
2022/01/13 04:36:19;;;;;;;;;;;23.20;46.80;;;;;;1536222;77;780;-70
2022/01/13 04:38:21;;;;;;;;;;;23.20;46.70;;;;;;1527680;77;724;-69
2022/01/13 04:40:23;;;;;;;;;;;23.30;46.80;;;;;;1532017;76;1953;-69
2022/01/13 04:42:30;;;;;;;;;;;23.20;46.80;;;;;;1532530;77;825;-68
2022/01/13 04:44:29;;;;;;;;;;;23.20;46.80;;;;;;1533262;77;1069;-69
2022/01/13 04:46:31;;;;;;;;;;;23.20;46.80;;;;;;1534553;76;794;-69
2022/01/13 04:48:32;;;;;;;;;;;23.20;46.80;;;;;;1534268;76;807;-69
2022/01/13 04:50:34;;;;;;;;;;;23.20;46.80;;;;;;1533668;76;1158;-69
2022/01/13 04:52:36;;;;;;;;;;;23.20;46.80;;;;;;1531338;77;685;-69
2022/01/13 04:54:38;;;;;;;;;;;23.10;46.90;;;;;;1530654;76;744;-70
2022/01/13 04:56:44;;;;;;;;;;;23.20;46.90;;;;;;1531987;76;836;-67
2022/01/13 04:58:44;;;;;;;;;;;23.20;47.00;;;;;;1533744;76;1630;-69
2022/01/13 05:00:45;;;;;;;;;;;23.10;46.90;;;;;;1531565;76;1948;-69
2022/01/13 05:02:47;;;;;;;;;;;23.20;47.10;;;;;;1532370;76;696;-69
2022/01/13 05:04:49;;;;;;;;;;;23.20;47.00;;;;;;1531807;76;761;-70
2022/01/13 05:06:51;;;;;;;;;;;23.10;47.00;;;;;;1532586;76;760;-69
2022/01/13 05:08:53;;;;;;;;;;;23.10;47.00;;;;;;1532394;77;725;-68
2022/01/13 05:10:55;;;;;;;;;;;23.20;47.00;;;;;;1532105;76;1137;-69
2022/01/13 05:12:58;;;;;;;;;;;23.20;46.90;;;;;;1532361;76;748;-68
2022/01/13 05:15:03;;;;;;;;;;;23.20;46.90;;;;;;1532312;76;807;-71
2022/01/13 05:17:34;;;;;;;;;;;23.10;47.00;;;;;;1534172;76;1176;-70
2022/01/13 05:19:21;;;;;;;;;;;23.10;47.00;;;;;;1524853;77;1316;-67
2022/01/13 05:21:44;;;;;;;;;;;23.20;47.00;;;;;;1531868;77;1936;-68
2022/01/13 05:23:26;;;;;;;;;;;23.20;47.00;;;;;;1524916;77;1645;-70
2022/01/13 05:25:28;;;;;;;;;;;23.20;47.00;;;;;;1531914;76;789;-69
2022/01/13 05:27:30;;;;;;;;;;;23.20;47.00;;;;;;1533785;77;812;-68
2022/01/13 05:29:31;;;;;;;;;;;23.20;47.10;;;;;;1531900;76;1142;-68
2022/01/13 05:31:33;;;;;;;;;;;23.20;47.10;;;;;;1532259;76;730;-69
2022/01/13 05:33:35;;;;;;;;;;;23.20;46.90;;;;;;1534303;77;765;-69
2022/01/13 05:35:37;;;;;;;;;;;23.20;47.10;;;;;;1534412;77;590;-68
2022/01/13 05:37:39;;;;;;;;;;;23.20;47.10;;;;;;1532215;77;826;-69
2022/01/13 05:39:41;;;;;;;;;;;23.20;47.00;;;;;;1533877;76;1121;-69
2022/01/13 05:41:43;;;;;;;;;;;23.20;46.90;;;;;;1532298;77;1936;-67
2022/01/13 05:43:45;;;;;;;;;;;23.20;46.80;;;;;;1532405;77;794;-68
2022/01/13 05:45:47;;;;;;;;;;;23.20;46.80;;;;;;1533677;77;725;-68
2022/01/13 05:47:49;;;;;;;;;;;23.20;46.80;;;;;;1533027;77;668;-68
2022/01/13 05:49:51;;;;;;;;;;;23.20;46.90;;;;;;1532941;76;1201;-69
2022/01/13 05:51:53;;;;;;;;;;;23.20;46.90;;;;;;1533146;76;721;-68
2022/01/13 05:53:54;;;;;;;;;;;23.20;47.00;;;;;;1533069;77;730;-69
2022/01/13 05:55:56;;;;;;;;;;;23.20;47.10;;;;;;1532767;77;610;-69
2022/01/13 05:57:58;;;;;;;;;;;23.20;47.10;;;;;;1532596;77;820;-69
2022/01/13 06:00:00;;;;;;;;;;;23.20;47.10;;;;;;1532448;76;1148;-68
2022/01/13 06:02:02;;;;;;;;;;;23.20;47.00;;;;;;1535377;76;1931;-67
2022/01/13 06:04:04;;;;;;;;;;;23.20;47.10;;;;;;1532745;76;816;-67
2022/01/13 06:06:06;;;;;;;;;;;23.20;47.10;;;;;;1533854;76;721;-68
2022/01/13 06:08:08;;;;;;;;;;;23.20;47.10;;;;;;1533085;77;710;-68
2022/01/13 06:10:12;;;;;;;;;;;23.20;47.10;;;;;;1529211;76;1217;-68
2022/01/13 06:12:16;;;;;;;;;;;23.20;47.10;;;;;;1532718;76;764;-69
2022/01/13 06:14:18;;;;;;;;;;;23.20;47.20;;;;;;1532122;76;733;-66
2022/01/13 06:16:20;;;;;;;;;;;23.20;47.30;;;;;;1533429;76;718;-66
2022/01/13 06:18:25;;;;;;;;;;;23.20;47.20;;;;;;1532097;77;641;-67
2022/01/13 06:20:25;;;;;;;;;;;23.20;47.30;;;;;;1531261;76;1597;-67
2022/01/13 06:22:27;;;;;;;;;;;23.20;47.30;;;;;;1532083;77;1918;-67
2022/01/13 06:24:29;;;;;;;;;;;23.20;47.30;;;;;;1532139;77;768;-67
2022/01/13 06:26:31;;;;;;;;;;;23.20;47.30;;;;;;1532076;77;801;-69
2022/01/13 06:28:33;;;;;;;;;;;23.20;47.30;;;;;;1529708;77;729;-70
2022/01/13 06:30:35;;;;;;;;;;;23.20;47.20;;;;;;1515966;76;1141;-70
2022/01/13 06:32:38;;;;;;;;;;;23.20;47.20;;;;;;1516163;78;650;-70
2022/01/13 06:34:39;;;;;;;;;;;23.30;47.20;;;;;;1522840;77;790;-68
2022/01/13 06:36:41;;;;;;;;;;;23.30;46.90;;;;;;1530440;77;690;-67
2022/01/13 06:38:43;;;;;;;;;;;23.30;46.60;;;;;;1532531;77;733;-68
2022/01/13 06:40:45;;;;;;;;;;;23.40;46.50;;;;;;1532449;76;1917;-68
2022/01/13 06:42:47;;;;;;;;;;;23.30;46.70;;;;;;1528347;77;692;-68
2022/01/13 06:44:49;;;;;;;;;;;23.30;46.80;;;;;;1540839;76;717;-69
2022/01/13 06:46:51;;;;;;;;;;;23.30;46.80;;;;;;1534526;77;762;-66
2022/01/13 06:48:53;;;;;;;;;;;23.30;46.80;;;;;;1543156;76;743;-67
2022/01/13 06:50:55;;;;;;;;;;;23.30;46.90;;;;;;1559116;75;1156;-67
2022/01/13 06:52:56;;;;;;;;;;;23.30;46.90;;;;;;1559046;76;1180;-68
2022/01/13 06:54:58;;;;;;;;;;;23.30;47.00;;;;;;1555122;76;822;-67
2022/01/13 06:57:00;;;;;;;;;;;23.30;47.00;;;;;;1532920;77;687;-69
2022/01/13 06:59:08;;;;;;;;;;;23.30;47.00;;;;;;1532546;77;787;-68
2022/01/13 07:01:06;;;;;;;;;;;23.30;47.00;;;;;;1540389;76;1936;-67
2022/01/13 07:03:08;;;;;;;;;;;23.30;47.00;;;;;;1559803;76;688;-68
2022/01/13 07:05:10;;;;;;;;;;;23.30;47.10;;;;;;1559412;76;794;-68
2022/01/13 07:07:12;;;;;;;;;;;23.30;47.10;;;;;;1557715;76;715;-67
2022/01/13 07:09:15;;;;;;;;;;;23.30;47.10;;;;;;1557240;76;758;-67
2022/01/13 07:11:17;;;;;;;;;;;23.30;47.10;;;;;;1544371;75;1078;-69
2022/01/13 07:13:18;;;;;;;;;;;23.30;47.10;;;;;;1533707;77;758;-69
2022/01/13 07:15:20;;;;;;;;;;;23.30;47.20;;;;;;1536386;77;721;-68
2022/01/13 07:17:22;;;;;;;;;;;23.30;47.30;;;;;;1534475;77;702;-68
2022/01/13 07:19:24;;;;;;;;;;;23.30;47.30;;;;;;1532666;76;1152;-69
2022/01/13 07:21:27;;;;;;;;;;;23.40;47.30;;;;;;1532738;77;1936;-69
2022/01/13 07:23:29;;;;;;;;;;;23.30;47.30;;;;;;1538008;77;684;-68
2022/01/13 07:25:31;;;;;;;;;;;23.30;47.30;;;;;;1544957;77;711;-68
2022/01/13 07:27:33;;;;;;;;;;;23.30;47.30;;;;;;1544992;77;816;-69
2022/01/13 07:29:35;;;;;;;;;;;23.30;47.30;;;;;;1522201;77;1165;-68
2022/01/13 07:31:37;;;;;;;;;;;23.30;47.30;;;;;;1516018;78;750;-69
2022/01/13 07:33:39;;;;;;;;;;;23.30;47.30;;;;;;1516053;77;642;-68
2022/01/13 07:35:40;;;;;;;;;;;23.30;47.40;;;;;;1516106;77;723;-70
2022/01/13 07:37:42;;;;;;;;;;;23.40;47.50;;;;;;1524304;77;721;-69
2022/01/13 07:39:44;;;;;;;;;;;23.30;47.50;;;;;;1532860;76;1146;-68
2022/01/13 07:41:46;;;;;;;;;;;23.40;47.40;;;;;;1532806;77;1928;-68
2022/01/13 07:43:53;;;;;;;;;;;23.30;47.40;;;;;;1532663;77;800;-67
2022/01/13 07:45:52;;;;;;;;;;;23.40;47.50;;;;;;1531452;77;1582;-68
2022/01/13 07:47:54;;;;;;;;;;;23.40;47.40;;;;;;1532722;77;652;-68
2022/01/13 07:49:56;;;;;;;;;;;23.40;47.40;;;;;;1532558;76;1204;-68
2022/01/13 07:51:57;;;;;;;;;;;23.40;47.50;;;;;;1532818;77;789;-68
2022/01/13 07:54:01;;;;;;;;;;;23.40;47.40;;;;;;1532715;77;796;-67
2022/01/13 07:56:02;;;;;;;;;;;23.40;47.40;;;;;;1515528;77;857;-69
2022/01/13 07:58:04;;;;;;;;;;;23.30;47.50;;;;;;1508068;77;796;-68
2022/01/13 08:00:07;;;;;;;;;;;23.40;47.50;;;;;;1556169;75;1186;-67
2022/01/13 08:02:09;;;;;;;;;;;23.40;47.50;;;;;;1528921;77;1932;-67
2022/01/13 08:04:10;;;;;;;;;;;23.40;47.50;;;;;;1533965;76;690;-68
2022/01/13 08:06:12;;;;;;;;;;;23.40;47.50;;;;;;1536519;76;738;-70
2022/01/13 08:08:14;;;;;;;;;;;23.40;47.50;;;;;;1539018;76;731;-69
2022/01/13 08:10:16;;;;;;;;;;;23.50;47.60;;;;;;1532803;76;1185;-69
2022/01/13 08:12:18;;;;;;;;;;;23.40;47.50;;;;;;1532139;76;737;-69
2022/01/13 08:14:20;;;;;;;;;;;23.40;47.40;;;;;;1532696;77;791;-68
2022/01/13 08:16:24;;;;;;;;;;;23.50;47.60;;;;;;1531920;76;701;-68
2022/01/13 08:20:45;;;;;;;;;;;23.40;47.50;;;;;;1532478;76;1185;-70
2022/01/13 08:22:47;;;;;;;;;;;23.50;47.60;;;;;;1534252;76;1938;-67
2022/01/13 08:24:49;;;;;;;;;;;23.50;47.60;;;;;;1532961;76;763;-67
2022/01/13 08:26:51;;;;;;;;;;;23.50;47.60;;;;;;1532515;77;786;-67
2022/01/13 08:28:53;;;;;;;;;;;23.50;47.70;;;;;;1529770;77;729;-68
2022/01/13 08:30:58;;;;;;;;;;;23.50;47.60;;;;;;1533620;76;1134;-68
2022/01/13 08:33:00;;;;;;;;;;;23.40;47.60;;;;;;1532651;76;761;-67
2022/01/13 08:35:01;;;;;;;;;;;23.50;47.60;;;;;;1535600;77;697;-68
2022/01/13 08:37:03;;;;;;;;;;;23.50;47.60;;;;;;1532782;77;739;-67
2022/01/13 08:39:05;;;;;;;;;;;23.50;47.60;;;;;;1532963;77;703;-68
2022/01/13 08:41:07;;;;;;;;;;;23.50;47.60;;;;;;1533146;76;1109;-67
2022/01/13 08:43:09;;;;;;;;;;;23.50;47.60;;;;;;1536620;77;1924;-67
2022/01/13 08:45:11;;;;;;;;;;;23.50;47.80;;;;;;1534496;77;725;-68
2022/01/13 08:47:13;;;;;;;;;;;23.50;47.80;;;;;;1533216;76;795;-67
2022/01/13 08:49:15;;;;;;;;;;;23.50;47.80;;;;;;1534257;77;950;-67
2022/01/13 08:51:18;;;;;;;;;;;23.40;47.60;;;;;;1534445;76;1053;-63
2022/01/13 08:53:20;;;;;;;;;;;23.40;47.60;;;;;;1532119;76;717;-66
2022/01/13 08:55:22;;;;;;;;;;;23.60;47.60;;;;;;1537753;73;2167;-73
2022/01/13 08:57:24;;;;;;;;;;;23.50;47.20;;;;;;1549028;76;821;-75
2022/01/13 08:59:26;;;;;;;;;;;23.50;47.30;;;;;;1558354;76;773;-74
2022/01/13 09:01:29;;;;;;;;;;;23.50;47.20;;;;;;1549190;76;757;-76
2022/01/13 09:03:31;;;;;;;;;;;23.50;47.20;;;;;;1554270;76;1887;-74
2022/01/13 09:05:33;;;;;;;;;;;23.50;47.30;;;;;;1556035;76;1202;-74
2022/01/13 09:07:35;;;;;;;;;;;23.50;47.20;;;;;;1563669;75;704;-74
2022/01/13 09:09:37;;;;;;;;;;;23.50;47.30;;;;;;1564329;75;819;-75
2022/01/13 09:11:39;;;;;;;;;;;23.50;47.30;;;;;;1563333;75;723;-75
2022/01/13 09:13:41;;;;;;;;;;;23.60;47.30;;;;;;1563760;75;780;-74
2022/01/13 09:15:57;;;;;;;;;;;23.50;47.30;;;;;;1556946;75;1109;-75
2022/01/13 09:17:52;;;;;;;;;;;23.50;47.30;;;;;;1560159;75;1488;-75
2022/01/13 09:19:54;;;;;;;;;;;23.50;47.30;;;;;;1562235;75;750;-73
2022/01/13 09:21:57;;;;;;;;;;;23.50;47.30;;;;;;1557530;75;1927;-74
2022/01/13 09:23:59;;;;;;;;;;;23.60;47.30;;;;;;1562642;75;805;-73
2022/01/13 09:26:00;;;;;;;;;;;23.50;47.30;;;;;;1552214;74;1122;-74
2022/01/13 09:28:06;;;;;;;;;;;23.50;47.20;;;;;;1553706;74;757;-73
2022/01/13 09:30:10;;;;;;;;;;;23.50;47.30;;;;;;1552117;75;763;-72
2022/01/13 09:32:12;;;;;;;;;;;23.50;47.30;;;;;;1557424;75;1766;-73
2022/01/13 09:34:14;;;;;;;;;;;23.50;47.20;;;;;;1559397;75;828;-72
2022/01/13 09:36:16;;;;;;;;;;;23.50;47.20;;;;;;1553414;75;1112;-73
2022/01/13 09:38:18;;;;;;;;;;;23.50;47.30;;;;;;1559631;75;749;-74
2022/01/13 09:40:19;;;;;;;;;;;23.50;47.30;;;;;;1561243;75;776;-74
2022/01/13 09:42:21;;;;;;;;;;;23.50;47.30;;;;;;1558318;75;1938;-74
2022/01/13 09:44:23;;;;;;;;;;;23.50;47.30;;;;;;1560472;75;763;-74
2022/01/13 09:46:28;;;;;;;;;;;23.50;47.30;;;;;;1555234;75;1059;-72
2022/01/13 09:48:31;;;;;;;;;;;23.50;47.30;;;;;;1548896;75;940;-74
2022/01/13 09:50:33;;;;;;;;;;;23.60;47.40;;;;;;1559952;75;866;-75
2022/01/13 09:52:34;;;;;;;;;;;23.50;47.40;;;;;;1555828;75;741;-74
2022/01/13 09:54:36;;;;;;;;;;;23.50;47.40;;;;;;1543008;74;741;-74
2022/01/13 09:56:38;;;;;;;;;;;23.50;47.40;;;;;;1547284;75;1106;-75
2022/01/13 09:58:43;;;;;;;;;;;23.50;47.40;;;;;;1561829;74;719;-70
2022/01/13 10:00:44;;;;;;;;;;;23.50;47.30;;;;;;1562140;74;1698;-75
2022/01/13 10:02:46;;;;;;;;;;;23.50;47.40;;;;;;1558846;75;1935;-74
2022/01/13 10:04:48;;;;;;;;;;;23.60;47.40;;;;;;1554600;74;1152;-75
2022/01/13 10:06:50;;;;;;;;;;;23.60;47.50;;;;;;1547916;75;818;-75
2022/01/13 10:08:52;;;;;;;;;;;23.60;47.40;;;;;;1557463;75;796;-74
2022/01/13 10:10:54;;;;;;;;;;;23.50;47.50;;;;;;1556876;75;773;-74
2022/01/13 10:13:00;;;;;;;;;;;23.50;47.40;;;;;;1547429;75;725;-74
2022/01/13 10:17:08;;;;;;;;;;;23.50;47.40;;;;;;1551795;76;852;-76
2022/01/13 10:19:11;;;;;;;;;;;23.50;47.40;;;;;;1553752;75;732;-71
2022/01/13 10:21:14;;;;;;;;;;;23.50;47.50;;;;;;1554984;76;1823;-73
2022/01/13 10:23:16;;;;;;;;;;;23.50;47.50;;;;;;1550676;75;1923;-72
2022/01/13 10:25:29;;;;;;;;;;;23.50;47.40;;;;;;1554817;75;1117;-72
2022/01/13 10:27:35;;;;;;;;;;;23.50;47.50;;;;;;1558292;74;705;-73
2022/01/13 10:29:40;;;;;;;;;;;23.60;47.40;;;;;;1549991;75;954;-70
2022/01/13 10:31:43;;;;;;;;;;;23.50;47.40;;;;;;1541443;75;759;-72
2022/01/13 10:33:45;;;;;;;;;;;23.60;47.40;;;;;;1557262;75;745;-72
2022/01/13 10:35:47;;;;;;;;;;;23.50;47.30;;;;;;1552660;75;1141;-71
2022/01/13 10:37:56;;;;;;;;;;;23.60;47.30;;;;;;1557177;75;694;-71
2022/01/13 10:39:57;;;;;;;;;;;23.60;47.10;;;;;;1518381;76;1066;-72
2022/01/13 10:42:19;;;;;;;;;;;23.80;47.10;;;;;;1553045;75;865;-71
2022/01/13 10:44:13;;;;;;;;;;;23.70;47.00;;;;;;1543562;75;1929;-75
2022/01/13 10:46:14;;;;;;;;;;;23.70;46.90;;;;;;1563682;75;1133;-72
2022/01/13 10:48:22;;;;;;;;;;;23.80;46.80;;;;;;1556178;76;950;-73
2022/01/13 10:50:28;;;;;;;;;;;23.80;46.80;;;;;;1556537;75;772;-74
2022/01/13 10:52:30;;;;;;;;;;;23.80;46.80;;;;;;1549007;75;1074;-73
2022/01/13 10:54:32;;;;;;;;;;;23.80;46.80;;;;;;1556773;75;721;-74
2022/01/13 10:56:34;;;;;;;;;;;23.80;46.60;;;;;;1549303;75;1096;-74
2022/01/13 10:58:52;;;;;;;;;;;23.90;46.70;;;;;;1557058;75;740;-74
2022/01/13 11:00:54;;;;;;;;;;;23.90;46.60;;;;;;1554255;75;779;-73
2022/01/13 11:03:14;;;;;;;;;;;23.90;46.70;;;;;;1558873;75;1927;-74
2022/01/13 11:05:16;;;;;;;;;;;23.80;46.70;;;;;;1562990;75;1183;-73
2022/01/13 11:07:27;;;;;;;;;;;23.80;46.90;;;;;;1557652;75;756;-72
2022/01/13 11:09:25;;;;;;;;;;;23.70;47.00;;;;;;1558788;76;1565;-72
2022/01/13 11:11:31;;;;;;;;;;;23.70;47.10;;;;;;1561443;75;741;-72
2022/01/13 11:13:38;;;;;;;;;;;23.70;47.20;;;;;;1556373;76;1475;-72
2022/01/13 11:15:39;;;;;;;;;;;23.70;47.20;;;;;;1558666;76;1103;-75
2022/01/13 11:17:40;;;;;;;;;;;23.70;47.30;;;;;;1563433;76;1174;-70
2022/01/13 11:19:44;;;;;;;;;;;23.70;47.60;;;;;;1563459;76;764;-70
2022/01/13 11:21:45;;;;;;;;;;;23.60;47.30;;;;;;1563885;76;1686;-69
2022/01/13 11:23:49;;;;;;;;;;;23.70;47.20;;;;;;1562958;76;1942;-71
2022/01/13 11:25:52;;;;;;;;;;;23.80;46.90;;;;;;1563388;76;1158;-69
2022/01/13 11:27:55;;;;;;;;;;;23.90;46.70;;;;;;1564060;76;738;-69
2022/01/13 11:29:57;;;;;;;;;;;23.90;46.50;;;;;;1564083;76;846;-70
2022/01/13 11:31:59;;;;;;;;;;;23.90;46.30;;;;;;1564267;76;737;-70
2022/01/13 11:34:01;;;;;;;;;;;24.00;46.10;;;;;;1563433;76;741;-70
2022/01/13 11:36:03;;;;;;;;;;;23.90;46.10;;;;;;1564183;76;1107;-70
2022/01/13 11:38:06;;;;;;;;;;;23.90;46.10;;;;;;1564195;76;789;-70
2022/01/13 11:40:08;;;;;;;;;;;23.90;46.10;;;;;;1563976;76;807;-72
2022/01/13 11:42:12;;;;;;;;;;;23.80;46.00;;;;;;1563730;76;727;-70
2022/01/13 11:44:14;;;;;;;;;;;23.80;45.90;;;;;;1563315;76;1936;-70
2022/01/13 11:46:21;;;;;;;;;;;23.70;45.90;;;;;;1564047;76;1071;-70
2022/01/13 11:48:24;;;;;;;;;;;23.70;46.00;;;;;;1563073;76;960;-70
2022/01/13 11:50:41;;;;;;;;;;;23.70;46.00;;;;;;1563999;76;727;-71
2022/01/13 11:52:41;;;;;;;;;;;23.70;46.00;;;;;;1530059;76;1484;-70
2022/01/13 11:54:43;;;;;;;;;;;23.70;46.10;;;;;;1564538;75;1072;-70
2022/01/13 11:56:47;;;;;;;;;;;23.60;46.00;;;;;;1583919;74;778;-71
2022/01/13 11:58:49;;;;;;;;;;;23.60;46.00;;;;;;1559401;76;1593;-70
2022/01/13 12:00:55;;;;;;;;;;;23.60;46.10;;;;;;1560693;76;785;-73
2022/01/13 12:02:54;;;;;;;;;;;23.60;46.10;;;;;;1546660;77;1913;-70
2022/01/13 12:05:03;;;;;;;;;;;23.60;46.20;;;;;;1547834;77;1089;-71
2022/01/13 12:07:05;;;;;;;;;;;23.60;46.40;;;;;;1557906;76;733;-72
2022/01/13 12:09:08;;;;;;;;;;;23.70;46.40;;;;;;1532473;77;1113;-68
2022/01/13 12:11:10;;;;;;;;;;;23.70;46.50;;;;;;1554253;76;803;-69
2022/01/13 12:13:32;;;;;;;;;;;23.90;45.00;;;;;;1557523;75;846;-68
2022/01/13 12:15:34;;;;;;;;;;;24.00;43.70;;;;;;1565982;75;1128;-67
2022/01/13 12:17:37;;;;;;;;;;;24.00;42.70;;;;;;1530593;76;1198;-67
2022/01/13 12:19:45;;;;;;;;;;;24.00;42.30;;;;;;1559148;75;1860;-67
2022/01/13 12:21:59;;;;;;;;;;;24.00;41.60;;;;;;1562212;74;1676;-67
2022/01/13 12:23:52;;;;;;;;;;;24.00;41.00;;;;;;1562568;75;1936;-66
2022/01/13 12:25:53;;;;;;;;;;;24.00;40.60;;;;;;1568666;75;1148;-68
2022/01/13 12:27:55;;;;;;;;;;;24.00;40.20;;;;;;1561376;75;786;-68